sensor_id;sensor_type;location;lat;lon;timestamp;pressure;altitude;pressure_sealevel;temperature;humidity
11395;BME280;5753;54.402;10.220;2023-02-26T00:02:24;101785.75;;;8.35;37.86
11395;BME280;5753;54.402;10.220;2023-02-26T00:04:50;101788.66;;;9.09;37.42
11395;BME280;5753;54.402;10.220;2023-02-26T00:07:17;101797.59;;;9.19;37.78
11395;BME280;5753;54.402;10.220;2023-02-26T00:09:43;101800.28;;;9.22;37.96
11395;BME280;5753;54.402;10.220;2023-02-26T00:12:12;101800.69;;;8.88;39.68
11395;BME280;5753;54.402;10.220;2023-02-26T00:14:39;101813.66;;;8.27;39.59
11395;BME280;5753;54.402;10.220;2023-02-26T00:19:53;101832.97;;;9.72;37.76
11395;BME280;5753;54.402;10.220;2023-02-26T00:22:20;101822.75;;;9.04;38.91
11395;BME280;5753;54.402;10.220;2023-02-26T00:24:46;101823.81;;;9.33;38.83
11395;BME280;5753;54.402;10.220;2023-02-26T00:27:12;101820.63;;;8.94;39.00
11395;BME280;5753;54.402;10.220;2023-02-26T00:29:39;101821.88;;;9.27;38.73
11395;BME280;5753;54.402;10.220;2023-02-26T00:32:06;101828.22;;;8.68;39.35
11395;BME280;5753;54.402;10.220;2023-02-26T00:34:32;101830.75;;;9.35;38.23
11395;BME280;5753;54.402;10.220;2023-02-26T00:42:22;101846.09;;;9.32;37.68
11395;BME280;5753;54.402;10.220;2023-02-26T00:44:48;101850.53;;;8.92;38.20
11395;BME280;5753;54.402;10.220;2023-02-26T00:52:52;101863.50;;;8.95;38.59
11395;BME280;5753;54.402;10.220;2023-02-26T00:55:23;101861.88;;;8.97;37.62
11395;BME280;5753;54.402;10.220;2023-02-26T00:57:49;101869.47;;;8.10;39.85
11395;BME280;5753;54.402;10.220;2023-02-26T01:00:16;101873.53;;;9.09;38.42
11395;BME280;5753;54.402;10.220;2023-02-26T01:02:43;101877.16;;;8.50;38.71
11395;BME280;5753;54.402;10.220;2023-02-26T01:05:10;101878.69;;;8.89;37.95
11395;BME280;5753;54.402;10.220;2023-02-26T01:10:20;101872.94;;;9.17;37.45
11395;BME280;5753;54.402;10.220;2023-02-26T01:12:47;101889.00;;;8.47;38.44
11395;BME280;5753;54.402;10.220;2023-02-26T01:15:13;101878.13;;;9.18;36.81
11395;BME280;5753;54.402;10.220;2023-02-26T01:17:50;101888.72;;;9.48;36.69
11395;BME280;5753;54.402;10.220;2023-02-26T01:20:25;101885.63;;;9.12;36.80
11395;BME280;5753;54.402;10.220;2023-02-26T01:23:00;101890.63;;;9.54;36.19
11395;BME280;5753;54.402;10.220;2023-02-26T01:25:50;101885.44;;;9.07;36.96
11395;BME280;5753;54.402;10.220;2023-02-26T01:28:20;101889.84;;;8.89;37.22
11395;BME280;5753;54.402;10.220;2023-02-26T01:30:47;101899.94;;;8.62;37.05
11395;BME280;5753;54.402;10.220;2023-02-26T01:33:56;101894.47;;;8.98;37.07
11395;BME280;5753;54.402;10.220;2023-02-26T01:36:20;101889.94;;;9.13;36.52
11395;BME280;5753;54.402;10.220;2023-02-26T01:42:09;101895.19;;;8.94;37.33
11395;BME280;5753;54.402;10.220;2023-02-26T01:45:00;101906.56;;;9.21;37.09
11395;BME280;5753;54.402;10.220;2023-02-26T01:48:01;101904.09;;;9.46;36.21
11395;BME280;5753;54.402;10.220;2023-02-26T01:50:28;101903.88;;;9.18;36.64
11395;BME280;5753;54.402;10.220;2023-02-26T01:55:43;101914.50;;;8.42;37.08
11395;BME280;5753;54.402;10.220;2023-02-26T01:58:11;101913.81;;;9.09;36.57
11395;BME280;5753;54.402;10.220;2023-02-26T02:00:37;101921.00;;;8.97;36.82
11395;BME280;5753;54.402;10.220;2023-02-26T02:03:04;101929.78;;;8.39;38.03
11395;BME280;5753;54.402;10.220;2023-02-26T02:05:36;101935.88;;;8.41;38.71
11395;BME280;5753;54.402;10.220;2023-02-26T02:08:04;101937.88;;;9.11;36.88
11395;BME280;5753;54.402;10.220;2023-02-26T02:10:31;101942.91;;;8.66;37.35
11395;BME280;5753;54.402;10.220;2023-02-26T02:15:45;101947.16;;;8.45;37.30
11395;BME280;5753;54.402;10.220;2023-02-26T02:21:43;101949.06;;;9.56;36.64
11395;BME280;5753;54.402;10.220;2023-02-26T02:35:25;101970.81;;;8.57;36.88
11395;BME280;5753;54.402;10.220;2023-02-26T02:40:31;101968.38;;;8.81;35.00
11395;BME280;5753;54.402;10.220;2023-02-26T02:43:14;101979.44;;;8.01;36.09
11395;BME280;5753;54.402;10.220;2023-02-26T02:46:08;101985.81;;;9.09;35.21
11395;BME280;5753;54.402;10.220;2023-02-26T02:48:45;101985.41;;;8.19;35.22
11395;BME280;5753;54.402;10.220;2023-02-26T02:54:24;101990.03;;;9.29;34.95
11395;BME280;5753;54.402;10.220;2023-02-26T02:59:50;102001.53;;;8.54;35.82
11395;BME280;5753;54.402;10.220;2023-02-26T03:04:56;101992.50;;;8.84;34.41
11395;BME280;5753;54.402;10.220;2023-02-26T03:07:23;102001.78;;;8.41;35.88
11395;BME280;5753;54.402;10.220;2023-02-26T03:09:49;102012.25;;;8.86;36.07
11395;BME280;5753;54.402;10.220;2023-02-26T03:12:15;102003.34;;;9.19;35.01
11395;BME280;5753;54.402;10.220;2023-02-26T03:14:42;102001.59;;;9.18;35.00
11395;BME280;5753;54.402;10.220;2023-02-26T03:25:32;102015.13;;;8.72;36.37
11395;BME280;5753;54.402;10.220;2023-02-26T03:28:08;102016.16;;;9.61;34.69
11395;BME280;5753;54.402;10.220;2023-02-26T03:30:57;102009.50;;;9.23;35.72
11395;BME280;5753;54.402;10.220;2023-02-26T03:33:38;102021.19;;;9.58;35.21
11395;BME280;5753;54.402;10.220;2023-02-26T03:36:36;102028.44;;;9.90;34.76
11395;BME280;5753;54.402;10.220;2023-02-26T03:39:32;102023.88;;;10.05;34.67
11395;BME280;5753;54.402;10.220;2023-02-26T03:44:30;102029.66;;;9.12;35.89
11395;BME280;5753;54.402;10.220;2023-02-26T03:47:04;102037.44;;;9.57;35.16
11395;BME280;5753;54.402;10.220;2023-02-26T03:49:42;102041.41;;;8.65;35.89
11395;BME280;5753;54.402;10.220;2023-02-26T03:52:10;102050.53;;;8.99;35.73
11395;BME280;5753;54.402;10.220;2023-02-26T03:54:42;102045.16;;;9.79;34.74
11395;BME280;5753;54.402;10.220;2023-02-26T03:57:10;102058.56;;;9.27;35.76
11395;BME280;5753;54.402;10.220;2023-02-26T03:59:36;102071.53;;;9.30;35.41
11395;BME280;5753;54.402;10.220;2023-02-26T04:02:09;102070.84;;;9.34;35.42
11395;BME280;5753;54.402;10.220;2023-02-26T04:07:09;102075.69;;;9.27;35.79
11395;BME280;5753;54.402;10.220;2023-02-26T04:09:36;102079.81;;;9.87;35.30
11395;BME280;5753;54.402;10.220;2023-02-26T04:12:03;102078.22;;;10.35;34.77
11395;BME280;5753;54.402;10.220;2023-02-26T04:14:29;102086.53;;;10.75;34.19
11395;BME280;5753;54.402;10.220;2023-02-26T04:16:56;102082.00;;;10.21;35.36
11395;BME280;5753;54.402;10.220;2023-02-26T04:19:22;102085.34;;;10.41;35.49
11395;BME280;5753;54.402;10.220;2023-02-26T04:21:48;102095.56;;;10.17;35.77
11395;BME280;5753;54.402;10.220;2023-02-26T04:24:14;102092.06;;;9.29;36.45
11395;BME280;5753;54.402;10.220;2023-02-26T04:26:40;102094.00;;;9.98;36.08
11395;BME280;5753;54.402;10.220;2023-02-26T04:29:06;102092.88;;;10.36;35.27
11395;BME280;5753;54.402;10.220;2023-02-26T04:31:33;102096.31;;;9.92;36.36
11395;BME280;5753;54.402;10.220;2023-02-26T04:33:59;102104.22;;;9.74;36.86
11395;BME280;5753;54.402;10.220;2023-02-26T04:36:25;102100.06;;;9.78;37.31
11395;BME280;5753;54.402;10.220;2023-02-26T04:38:51;102099.28;;;10.46;36.72
11395;BME280;5753;54.402;10.220;2023-02-26T04:41:18;102098.91;;;9.92;37.01
11395;BME280;5753;54.402;10.220;2023-02-26T04:43:44;102110.41;;;10.00;36.92
11395;BME280;5753;54.402;10.220;2023-02-26T04:46:10;102108.59;;;9.77;38.05
11395;BME280;5753;54.402;10.220;2023-02-26T04:48:36;102113.97;;;9.40;38.51
11395;BME280;5753;54.402;10.220;2023-02-26T04:51:03;102112.34;;;9.21;38.34
11395;BME280;5753;54.402;10.220;2023-02-26T04:53:29;102114.44;;;9.73;37.96
11395;BME280;5753;54.402;10.220;2023-02-26T04:55:55;102121.22;;;10.14;37.22
11395;BME280;5753;54.402;10.220;2023-02-26T04:58:21;102114.25;;;10.12;38.12
11395;BME280;5753;54.402;10.220;2023-02-26T05:00:49;102108.00;;;9.62;38.36
11395;BME280;5753;54.402;10.220;2023-02-26T05:03:16;102113.41;;;9.90;37.97
11395;BME280;5753;54.402;10.220;2023-02-26T05:05:42;102111.78;;;9.49;38.48
11395;BME280;5753;54.402;10.220;2023-02-26T05:08:09;102120.38;;;9.29;38.46
11395;BME280;5753;54.402;10.220;2023-02-26T05:10:35;102125.22;;;9.85;37.84
11395;BME280;5753;54.402;10.220;2023-02-26T05:13:01;102128.72;;;9.65;38.28
11395;BME280;5753;54.402;10.220;2023-02-26T05:15:28;102130.28;;;10.04;37.61
11395;BME280;5753;54.402;10.220;2023-02-26T05:17:54;102131.09;;;10.47;36.70
11395;BME280;5753;54.402;10.220;2023-02-26T05:20:20;102135.03;;;10.85;36.50
11395;BME280;5753;54.402;10.220;2023-02-26T05:22:46;102130.31;;;10.27;37.05
11395;BME280;5753;54.402;10.220;2023-02-26T05:25:13;102141.28;;;10.21;37.86
11395;BME280;5753;54.402;10.220;2023-02-26T05:27:40;102138.84;;;10.03;37.56
11395;BME280;5753;54.402;10.220;2023-02-26T05:30:12;102148.16;;;10.00;38.34
11395;BME280;5753;54.402;10.220;2023-02-26T05:32:39;102145.25;;;9.92;37.98
11395;BME280;5753;54.402;10.220;2023-02-26T05:35:06;102147.28;;;9.99;38.00
11395;BME280;5753;54.402;10.220;2023-02-26T05:37:32;102155.53;;;10.13;37.86
11395;BME280;5753;54.402;10.220;2023-02-26T05:39:58;102153.16;;;10.40;38.16
11395;BME280;5753;54.402;10.220;2023-02-26T05:42:25;102167.75;;;9.96;38.89
11395;BME280;5753;54.402;10.220;2023-02-26T05:44:54;102163.78;;;11.19;37.17
11395;BME280;5753;54.402;10.220;2023-02-26T05:47:21;102162.34;;;10.80;36.80
11395;BME280;5753;54.402;10.220;2023-02-26T05:49:47;102175.38;;;9.72;38.89
11395;BME280;5753;54.402;10.220;2023-02-26T05:52:13;102175.66;;;9.80;39.64
11395;BME280;5753;54.402;10.220;2023-02-26T05:54:39;102179.09;;;9.18;41.00
11395;BME280;5753;54.402;10.220;2023-02-26T05:57:06;102188.38;;;9.55;39.68
11395;BME280;5753;54.402;10.220;2023-02-26T05:59:32;102191.75;;;9.13;39.28
11395;BME280;5753;54.402;10.220;2023-02-26T06:01:58;102193.69;;;10.01;37.79
11395;BME280;5753;54.402;10.220;2023-02-26T06:04:24;102191.13;;;9.19;38.53
11395;BME280;5753;54.402;10.220;2023-02-26T06:06:50;102197.34;;;8.86;39.11
11395;BME280;5753;54.402;10.220;2023-02-26T06:09:17;102193.44;;;8.74;39.07
11395;BME280;5753;54.402;10.220;2023-02-26T06:11:43;102206.97;;;9.09;38.75
11395;BME280;5753;54.402;10.220;2023-02-26T06:14:09;102214.13;;;8.97;38.77
11395;BME280;5753;54.402;10.220;2023-02-26T06:16:35;102219.00;;;8.71;38.94
11395;BME280;5753;54.402;10.220;2023-02-26T06:19:02;102220.44;;;8.84;38.84
11395;BME280;5753;54.402;10.220;2023-02-26T06:21:28;102218.81;;;9.25;38.70
11395;BME280;5753;54.402;10.220;2023-02-26T06:23:54;102223.59;;;8.78;39.43
11395;BME280;5753;54.402;10.220;2023-02-26T06:26:20;102234.47;;;8.36;39.26
11395;BME280;5753;54.402;10.220;2023-02-26T06:28:46;102242.19;;;9.10;38.61
11395;BME280;5753;54.402;10.220;2023-02-26T06:31:13;102251.41;;;8.87;39.08
11395;BME280;5753;54.402;10.220;2023-02-26T06:33:39;102255.22;;;8.95;38.04
11395;BME280;5753;54.402;10.220;2023-02-26T06:36:05;102254.13;;;8.35;39.20
11395;BME280;5753;54.402;10.220;2023-02-26T06:38:31;102252.22;;;9.44;37.83
11395;BME280;5753;54.402;10.220;2023-02-26T06:40:57;102262.47;;;9.23;37.83
11395;BME280;5753;54.402;10.220;2023-02-26T06:43:24;102257.34;;;8.13;39.34
11395;BME280;5753;54.402;10.220;2023-02-26T06:45:50;102258.47;;;9.30;37.67
11395;BME280;5753;54.402;10.220;2023-02-26T06:48:17;102269.38;;;9.84;37.53
11395;BME280;5753;54.402;10.220;2023-02-26T06:50:43;102266.81;;;9.24;38.66
11395;BME280;5753;54.402;10.220;2023-02-26T06:53:10;102272.38;;;9.73;37.74
11395;BME280;5753;54.402;10.220;2023-02-26T06:55:40;102272.47;;;8.98;39.11
11395;BME280;5753;54.402;10.220;2023-02-26T06:58:07;102280.75;;;9.10;38.90
11395;BME280;5753;54.402;10.220;2023-02-26T07:00:33;102283.81;;;9.80;37.68
11395;BME280;5753;54.402;10.220;2023-02-26T07:03:01;102284.34;;;9.52;38.34
11395;BME280;5753;54.402;10.220;2023-02-26T07:05:27;102281.94;;;10.59;37.15
11395;BME280;5753;54.402;10.220;2023-02-26T07:07:53;102290.09;;;9.66;38.30
11395;BME280;5753;54.402;10.220;2023-02-26T07:10:20;102297.81;;;9.66;38.72
11395;BME280;5753;54.402;10.220;2023-02-26T07:12:50;102296.28;;;10.53;37.42
11395;BME280;5753;54.402;10.220;2023-02-26T07:15:16;102296.22;;;10.09;38.16
11395;BME280;5753;54.402;10.220;2023-02-26T07:17:43;102309.75;;;10.25;38.18
11395;BME280;5753;54.402;10.220;2023-02-26T07:20:10;102297.16;;;10.53;38.08
11395;BME280;5753;54.402;10.220;2023-02-26T07:22:37;102311.56;;;9.87;38.05
11395;BME280;5753;54.402;10.220;2023-02-26T07:25:04;102312.28;;;10.44;37.64
11395;BME280;5753;54.402;10.220;2023-02-26T07:27:30;102310.66;;;10.68;37.25
11395;BME280;5753;54.402;10.220;2023-02-26T07:29:58;102307.84;;;11.31;36.86
11395;BME280;5753;54.402;10.220;2023-02-26T07:32:24;102307.66;;;11.74;36.25
11395;BME280;5753;54.402;10.220;2023-02-26T07:34:51;102313.47;;;11.43;36.44
11395;BME280;5753;54.402;10.220;2023-02-26T07:37:17;102319.88;;;11.30;37.06
11395;BME280;5753;54.402;10.220;2023-02-26T07:39:44;102324.88;;;11.97;36.13
11395;BME280;5753;54.402;10.220;2023-02-26T07:42:10;102326.56;;;11.48;37.25
11395;BME280;5753;54.402;10.220;2023-02-26T07:44:36;102323.34;;;11.55;37.34
11395;BME280;5753;54.402;10.220;2023-02-26T07:47:02;102327.78;;;12.07;37.11
11395;BME280;5753;54.402;10.220;2023-02-26T07:49:29;102332.84;;;12.04;36.89
11395;BME280;5753;54.402;10.220;2023-02-26T07:51:55;102339.97;;;11.85;37.38
11395;BME280;5753;54.402;10.220;2023-02-26T07:54:21;102343.75;;;12.20;37.37
11395;BME280;5753;54.402;10.220;2023-02-26T07:56:47;102350.53;;;11.91;37.71
11395;BME280;5753;54.402;10.220;2023-02-26T07:59:13;102343.91;;;11.52;38.18
11395;BME280;5753;54.402;10.220;2023-02-26T08:01:40;102345.63;;;12.51;36.80
11395;BME280;5753;54.402;10.220;2023-02-26T08:04:06;102350.63;;;11.94;37.22
11395;BME280;5753;54.402;10.220;2023-02-26T08:06:32;102354.13;;;11.96;37.44
11395;BME280;5753;54.402;10.220;2023-02-26T08:08:58;102352.69;;;11.81;37.68
11395;BME280;5753;54.402;10.220;2023-02-26T08:11:24;102356.66;;;12.46;36.37
11395;BME280;5753;54.402;10.220;2023-02-26T08:13:50;102365.28;;;12.21;37.06
11395;BME280;5753;54.402;10.220;2023-02-26T08:16:17;102375.78;;;12.51;37.26
11395;BME280;5753;54.402;10.220;2023-02-26T08:18:43;102368.06;;;12.52;37.17
11395;BME280;5753;54.402;10.220;2023-02-26T08:21:09;102373.03;;;12.73;37.02
11395;BME280;5753;54.402;10.220;2023-02-26T08:23:36;102382.16;;;12.35;36.85
11395;BME280;5753;54.402;10.220;2023-02-26T08:26:05;102383.19;;;12.67;37.06
11395;BME280;5753;54.402;10.220;2023-02-26T08:28:31;102387.88;;;12.77;36.80
11395;BME280;5753;54.402;10.220;2023-02-26T08:30:58;102381.25;;;12.60;37.29
11395;BME280;5753;54.402;10.220;2023-02-26T08:33:24;102392.28;;;12.54;37.46
11395;BME280;5753;54.402;10.220;2023-02-26T08:35:51;102393.00;;;13.04;37.36
11395;BME280;5753;54.402;10.220;2023-02-26T08:38:19;102401.09;;;11.39;39.25
11395;BME280;5753;54.402;10.220;2023-02-26T08:40:48;102403.22;;;10.83;40.48
11395;BME280;5753;54.402;10.220;2023-02-26T08:43:14;102405.09;;;12.01;40.09
11395;BME280;5753;54.402;10.220;2023-02-26T08:45:40;102401.63;;;12.00;39.35
11395;BME280;5753;54.402;10.220;2023-02-26T08:48:06;102401.06;;;11.83;40.25
11395;BME280;5753;54.402;10.220;2023-02-26T08:50:32;102401.22;;;12.13;40.07
11395;BME280;5753;54.402;10.220;2023-02-26T08:52:58;102405.41;;;12.10;40.22
11395;BME280;5753;54.402;10.220;2023-02-26T08:55:25;102415.44;;;12.01;40.21
11395;BME280;5753;54.402;10.220;2023-02-26T08:57:51;102407.53;;;11.96;39.90
11395;BME280;5753;54.402;10.220;2023-02-26T09:00:17;102418.97;;;12.79;39.01
11395;BME280;5753;54.402;10.220;2023-02-26T09:02:44;102420.22;;;11.90;40.90
11395;BME280;5753;54.402;10.220;2023-02-26T09:05:11;102422.25;;;13.02;39.59
11395;BME280;5753;54.402;10.220;2023-02-26T09:07:38;102432.81;;;13.08;39.96
11395;BME280;5753;54.402;10.220;2023-02-26T09:10:06;102433.34;;;12.45;42.08
11395;BME280;5753;54.402;10.220;2023-02-26T09:12:33;102429.94;;;12.46;40.95
11395;BME280;5753;54.402;10.220;2023-02-26T09:15:02;102433.38;;;12.21;41.35
11395;BME280;5753;54.402;10.220;2023-02-26T09:17:29;102443.03;;;12.51;41.15
11395;BME280;5753;54.402;10.220;2023-02-26T09:19:56;102434.47;;;12.28;41.51
11395;BME280;5753;54.402;10.220;2023-02-26T09:22:22;102440.66;;;12.08;42.28
11395;BME280;5753;54.402;10.220;2023-02-26T09:24:49;102456.91;;;12.29;42.02
11395;BME280;5753;54.402;10.220;2023-02-26T09:27:15;102448.34;;;11.60;42.90
11395;BME280;5753;54.402;10.220;2023-02-26T09:29:41;102448.47;;;12.33;42.36
11395;BME280;5753;54.402;10.220;2023-02-26T09:32:08;102464.59;;;11.35;44.28
11395;BME280;5753;54.402;10.220;2023-02-26T09:34:38;102457.06;;;11.84;43.39
11395;BME280;5753;54.402;10.220;2023-02-26T09:37:06;102466.88;;;10.63;46.05
11395;BME280;5753;54.402;10.220;2023-02-26T09:39:34;102478.91;;;11.27;45.79
11395;BME280;5753;54.402;10.220;2023-02-26T09:45:38;102473.94;;;11.98;44.98
11395;BME280;5753;54.402;10.220;2023-02-26T09:48:07;102482.44;;;12.44;43.07
11395;BME280;5753;54.402;10.220;2023-02-26T09:50:46;102475.72;;;13.27;42.53
11395;BME280;5753;54.402;10.220;2023-02-26T09:53:31;102492.38;;;11.63;45.44
11395;BME280;5753;54.402;10.220;2023-02-26T09:56:07;102485.44;;;12.31;44.34
11395;BME280;5753;54.402;10.220;2023-02-26T09:58:38;102496.00;;;12.37;43.94
11395;BME280;5753;54.402;10.220;2023-02-26T10:01:23;102485.53;;;13.11;43.03
11395;BME280;5753;54.402;10.220;2023-02-26T10:12:13;102510.56;;;12.84;42.97
11395;BME280;5753;54.402;10.220;2023-02-26T10:17:45;102517.66;;;14.00;40.84
11395;BME280;5753;54.402;10.220;2023-02-26T10:20:19;102512.13;;;13.60;41.90
11395;BME280;5753;54.402;10.220;2023-02-26T10:23:34;102518.63;;;13.74;41.78
11395;BME280;5753;54.402;10.220;2023-02-26T10:26:39;102516.72;;;12.87;42.35
11395;BME280;5753;54.402;10.220;2023-02-26T10:29:14;102522.91;;;14.33;41.25
11395;BME280;5753;54.402;10.220;2023-02-26T10:31:48;102528.25;;;14.08;40.96
11395;BME280;5753;54.402;10.220;2023-02-26T10:34:20;102530.78;;;12.96;42.17
11395;BME280;5753;54.402;10.220;2023-02-26T10:39:52;102542.88;;;14.06;40.85
11395;BME280;5753;54.402;10.220;2023-02-26T10:42:31;102548.72;;;13.99;41.37
11395;BME280;5753;54.402;10.220;2023-02-26T10:50:57;102549.91;;;15.40;37.74
11395;BME280;5753;54.402;10.220;2023-02-26T10:53:34;102555.84;;;15.69;36.69
11395;BME280;5753;54.402;10.220;2023-02-26T10:56:08;102556.50;;;14.92;37.79
11395;BME280;5753;54.402;10.220;2023-02-26T10:58:36;102563.13;;;14.47;38.49
11395;BME280;5753;54.402;10.220;2023-02-26T11:01:06;102562.69;;;14.04;39.61
11395;BME280;5753;54.402;10.220;2023-02-26T11:03:41;102561.16;;;14.10;38.98
11395;BME280;5753;54.402;10.220;2023-02-26T11:06:17;102575.09;;;14.14;38.57
11395;BME280;5753;54.402;10.220;2023-02-26T11:08:48;102564.44;;;14.65;38.30
11395;BME280;5753;54.402;10.220;2023-02-26T11:12:21;102574.56;;;13.40;40.40
11395;BME280;5753;54.402;10.220;2023-02-26T11:14:43;102584.38;;;11.39;44.54
11395;BME280;5753;54.402;10.220;2023-02-26T11:17:16;102585.47;;;10.25;47.11
11395;BME280;5753;54.402;10.220;2023-02-26T11:19:58;102577.38;;;12.24;43.37
11395;BME280;5753;54.402;10.220;2023-02-26T11:22:26;102584.38;;;11.18;44.30
11395;BME280;5753;54.402;10.220;2023-02-26T11:24:53;102599.28;;;11.04;44.69
11395;BME280;5753;54.402;10.220;2023-02-26T11:27:35;102591.56;;;11.68;44.05
11395;BME280;5753;54.402;10.220;2023-02-26T11:30:19;102594.31;;;10.49;45.99
11395;BME280;5753;54.402;10.220;2023-02-26T11:32:50;102595.25;;;10.70;45.46
11395;BME280;5753;54.402;10.220;2023-02-26T11:35:18;102597.63;;;11.89;43.67
11395;BME280;5753;54.402;10.220;2023-02-26T11:38:00;102601.63;;;12.50;42.01
11395;BME280;5753;54.402;10.220;2023-02-26T11:42:57;102592.13;;;13.23;41.59
11395;BME280;5753;54.402;10.220;2023-02-26T11:45:24;102597.03;;;12.90;40.87
11395;BME280;5753;54.402;10.220;2023-02-26T11:47:58;102595.13;;;12.85;40.47
11395;BME280;5753;54.402;10.220;2023-02-26T11:50:27;102589.38;;;12.22;41.43
11395;BME280;5753;54.402;10.220;2023-02-26T11:52:56;102586.88;;;12.47;42.04
11395;BME280;5753;54.402;10.220;2023-02-26T11:55:35;102588.50;;;12.21;41.46
11395;BME280;5753;54.402;10.220;2023-02-26T11:58:14;102590.22;;;11.34;43.37
11395;BME280;5753;54.402;10.220;2023-02-26T12:00:42;102598.16;;;11.18;43.70
11395;BME280;5753;54.402;10.220;2023-02-26T12:03:17;102596.53;;;12.29;41.07
11395;BME280;5753;54.402;10.220;2023-02-26T12:05:45;102590.28;;;12.46;40.97
11395;BME280;5753;54.402;10.220;2023-02-26T12:19:16;102584.63;;;12.33;41.54
11395;BME280;5753;54.402;10.220;2023-02-26T12:30:12;102584.97;;;12.67;40.23
11395;BME280;5753;54.402;10.220;2023-02-26T12:35:41;102590.41;;;12.99;39.53
11395;BME280;5753;54.402;10.220;2023-02-26T12:38:20;102600.56;;;13.99;37.33
11395;BME280;5753;54.402;10.220;2023-02-26T12:41:09;102589.28;;;14.25;37.02
11395;BME280;5753;54.402;10.220;2023-02-26T12:46:39;102589.53;;;15.30;35.10
11395;BME280;5753;54.402;10.220;2023-02-26T12:50:11;102591.28;;;12.27;39.02
11395;BME280;5753;54.402;10.220;2023-02-26T12:52:58;102599.09;;;14.07;36.34
11395;BME280;5753;54.402;10.220;2023-02-26T13:00:43;102597.00;;;14.54;34.89
11395;BME280;5753;54.402;10.220;2023-02-26T13:09:27;102592.63;;;15.16;34.34
11395;BME280;5753;54.402;10.220;2023-02-26T13:17:58;102582.50;;;18.64;29.46
11395;BME280;5753;54.402;10.220;2023-02-26T13:20:28;102587.47;;;19.31;28.79
11395;BME280;5753;54.402;10.220;2023-02-26T13:23:01;102575.34;;;18.48;28.96
11395;BME280;5753;54.402;10.220;2023-02-26T13:25:39;102577.56;;;17.03;30.47
11395;BME280;5753;54.402;10.220;2023-02-26T13:30:56;102582.34;;;17.28;30.50
11395;BME280;5753;54.402;10.220;2023-02-26T13:33:28;102584.03;;;17.80;30.22
11395;BME280;5753;54.402;10.220;2023-02-26T13:35:56;102594.19;;;16.19;32.28
11395;BME280;5753;54.402;10.220;2023-02-26T13:41:56;102595.09;;;15.82;33.02
11395;BME280;5753;54.402;10.220;2023-02-26T13:44:39;102587.63;;;17.87;30.52
11395;BME280;5753;54.402;10.220;2023-02-26T13:52:35;102585.84;;;17.30;28.58
11395;BME280;5753;54.402;10.220;2023-02-26T13:55:03;102579.38;;;18.99;28.31
11395;BME280;5753;54.402;10.220;2023-02-26T13:57:50;102576.69;;;22.34;23.85
11395;BME280;5753;54.402;10.220;2023-02-26T14:00:35;102578.38;;;20.04;25.48
11395;BME280;5753;54.402;10.220;2023-02-26T14:11:01;102584.16;;;22.99;22.59
11395;BME280;5753;54.402;10.220;2023-02-26T14:13:37;102584.81;;;23.29;21.96
11395;BME280;5753;54.402;10.220;2023-02-26T14:16:13;102584.09;;;23.05;22.64
11395;BME280;5753;54.402;10.220;2023-02-26T14:26:37;102580.72;;;22.91;23.16
11395;BME280;5753;54.402;10.220;2023-02-26T14:29:24;102586.44;;;21.90;23.34
11395;BME280;5753;54.402;10.220;2023-02-26T14:32:34;102591.28;;;18.69;26.70
11395;BME280;5753;54.402;10.220;2023-02-26T14:34:55;102601.63;;;16.88;29.84
11395;BME280;5753;54.402;10.220;2023-02-26T14:37:25;102602.78;;;14.15;34.27
11395;BME280;5753;54.402;10.220;2023-02-26T14:42:52;102605.66;;;15.53;34.01
11395;BME280;5753;54.402;10.220;2023-02-26T14:47:58;102598.47;;;17.58;29.50
11395;BME280;5753;54.402;10.220;2023-02-26T14:50:28;102605.72;;;14.87;33.57
11395;BME280;5753;54.402;10.220;2023-02-26T15:01:46;102606.72;;;17.30;30.18
11395;BME280;5753;54.402;10.220;2023-02-26T15:07:38;102605.38;;;18.86;27.43
11395;BME280;5753;54.402;10.220;2023-02-26T15:18:48;102606.28;;;19.99;26.78
11395;BME280;5753;54.402;10.220;2023-02-26T15:24:12;102603.06;;;17.72;29.23
11395;BME280;5753;54.402;10.220;2023-02-26T15:26:51;102604.88;;;18.44;28.34
11395;BME280;5753;54.402;10.220;2023-02-26T15:29:22;102609.56;;;18.01;29.02
11395;BME280;5753;54.402;10.220;2023-02-26T15:31:57;102611.38;;;18.76;28.54
11395;BME280;5753;54.402;10.220;2023-02-26T15:34:26;102614.69;;;16.89;30.20
11395;BME280;5753;54.402;10.220;2023-02-26T15:36:53;102617.44;;;13.84;34.75
11395;BME280;5753;54.402;10.220;2023-02-26T15:39:22;102622.00;;;13.66;34.67
11395;BME280;5753;54.402;10.220;2023-02-26T15:41:50;102620.00;;;12.57;36.72
11395;BME280;5753;54.402;10.220;2023-02-26T15:44:35;102628.31;;;12.73;36.47
11395;BME280;5753;54.402;10.220;2023-02-26T15:47:02;102627.38;;;11.59;38.29
11395;BME280;5753;54.402;10.220;2023-02-26T15:49:37;102632.19;;;10.89;39.61
11395;BME280;5753;54.402;10.220;2023-02-26T15:52:06;102629.69;;;11.94;37.40
11395;BME280;5753;54.402;10.220;2023-02-26T15:54:42;102636.38;;;12.12;36.99
11395;BME280;5753;54.402;10.220;2023-02-26T15:57:11;102644.84;;;12.08;36.96
11395;BME280;5753;54.402;10.220;2023-02-26T15:59:49;102645.53;;;12.72;35.97
11395;BME280;5753;54.402;10.220;2023-02-26T16:02:29;102640.72;;;12.13;37.35
11395;BME280;5753;54.402;10.220;2023-02-26T16:04:56;102639.53;;;11.82;38.47
11395;BME280;5753;54.402;10.220;2023-02-26T16:07:22;102645.00;;;12.81;36.67
11395;BME280;5753;54.402;10.220;2023-02-26T16:09:53;102644.06;;;11.46;39.21
11395;BME280;5753;54.402;10.220;2023-02-26T16:12:40;102644.84;;;12.30;38.37
11395;BME280;5753;54.402;10.220;2023-02-26T16:15:15;102652.47;;;12.05;39.32
11395;BME280;5753;54.402;10.220;2023-02-26T16:17:44;102652.34;;;11.18;39.66
11395;BME280;5753;54.402;10.220;2023-02-26T16:20:19;102650.56;;;11.78;38.77
11395;BME280;5753;54.402;10.220;2023-02-26T16:22:49;102657.53;;;12.24;38.13
11395;BME280;5753;54.402;10.220;2023-02-26T16:25:47;102653.00;;;11.96;38.75